sensor_id;sensor_type;location;lat;lon;timestamp;P1;durP1;ratioP1;P2;durP2;ratioP2
37115;SDS011;23025;41.996;23.098;2023-04-01T00:01:50;7.18;;;6.88;;
37115;SDS011;23025;41.996;23.098;2023-04-01T00:04:16;8.30;;;7.88;;
37115;SDS011;23025;41.996;23.098;2023-04-01T00:06:43;6.45;;;6.07;;
37115;SDS011;23025;41.996;23.098;2023-04-01T00:09:09;9.80;;;9.40;;
37115;SDS011;23025;41.996;23.098;2023-04-01T00:11:36;7.22;;;6.93;;
37115;SDS011;23025;41.996;23.098;2023-04-01T00:14:02;7.38;;;6.97;;
37115;SDS011;23025;41.996;23.098;2023-04-01T00:16:29;7.38;;;6.22;;
37115;SDS011;23025;41.996;23.098;2023-04-01T00:18:57;7.32;;;7.03;;
37115;SDS011;23025;41.996;23.098;2023-04-01T00:21:23;5.45;;;5.18;;
37115;SDS011;23025;41.996;23.098;2023-04-01T00:23:50;8.30;;;7.90;;
37115;SDS011;23025;41.996;23.098;2023-04-01T00:26:17;7.90;;;7.50;;
37115;SDS011;23025;41.996;23.098;2023-04-01T00:28:45;8.68;;;8.18;;
37115;SDS011;23025;41.996;23.098;2023-04-01T00:31:12;6.57;;;6.25;;
37115;SDS011;23025;41.996;23.098;2023-04-01T00:33:39;6.45;;;6.15;;
37115;SDS011;23025;41.996;23.098;2023-04-01T00:36:08;6.45;;;6.20;;
37115;SDS011;23025;41.996;23.098;2023-04-01T00:38:35;16.00;;;15.40;;
37115;SDS011;23025;41.996;23.098;2023-04-01T00:41:02;8.50;;;8.10;;
37115;SDS011;23025;41.996;23.098;2023-04-01T00:43:29;6.20;;;5.65;;
37115;SDS011;23025;41.996;23.098;2023-04-01T00:45:56;5.03;;;4.78;;
37115;SDS011;23025;41.996;23.098;2023-04-01T00:48:23;5.07;;;4.88;;
37115;SDS011;23025;41.996;23.098;2023-04-01T00:50:52;7.13;;;6.75;;
37115;SDS011;23025;41.996;23.098;2023-04-01T00:53:21;6.05;;;5.75;;
37115;SDS011;23025;41.996;23.098;2023-04-01T00:55:49;6.78;;;6.13;;
37115;SDS011;23025;41.996;23.098;2023-04-01T00:58:16;5.68;;;5.47;;
37115;SDS011;23025;41.996;23.098;2023-04-01T01:00:44;4.43;;;4.22;;
37115;SDS011;23025;41.996;23.098;2023-04-01T01:03:11;8.25;;;7.93;;
37115;SDS011;23025;41.996;23.098;2023-04-01T01:05:42;5.53;;;5.13;;
37115;SDS011;23025;41.996;23.098;2023-04-01T01:08:13;5.35;;;5.15;;
37115;SDS011;23025;41.996;23.098;2023-04-01T01:10:43;6.72;;;6.43;;
37115;SDS011;23025;41.996;23.098;2023-04-01T01:13:16;5.40;;;5.20;;
37115;SDS011;23025;41.996;23.098;2023-04-01T01:15:44;6.88;;;6.57;;
37115;SDS011;23025;41.996;23.098;2023-04-01T01:18:14;7.18;;;6.88;;
37115;SDS011;23025;41.996;23.098;2023-04-01T01:20:55;7.88;;;7.47;;
37115;SDS011;23025;41.996;23.098;2023-04-01T01:23:35;6.72;;;6.43;;
37115;SDS011;23025;41.996;23.098;2023-04-01T01:26:22;6.28;;;5.88;;
37115;SDS011;23025;41.996;23.098;2023-04-01T01:28:58;6.07;;;5.78;;
37115;SDS011;23025;41.996;23.098;2023-04-01T01:31:30;5.28;;;5.07;;
37115;SDS011;23025;41.996;23.098;2023-04-01T01:34:02;5.95;;;5.70;;
37115;SDS011;23025;41.996;23.098;2023-04-01T01:36:33;6.20;;;5.90;;
37115;SDS011;23025;41.996;23.098;2023-04-01T01:39:00;8.70;;;8.30;;
37115;SDS011;23025;41.996;23.098;2023-04-01T01:41:27;5.70;;;5.45;;
37115;SDS011;23025;41.996;23.098;2023-04-01T01:43:55;5.93;;;5.63;;
37115;SDS011;23025;41.996;23.098;2023-04-01T01:46:23;5.32;;;5.13;;
37115;SDS011;23025;41.996;23.098;2023-04-01T01:48:50;5.53;;;5.30;;
37115;SDS011;23025;41.996;23.098;2023-04-01T01:51:17;5.47;;;5.18;;
37115;SDS011;23025;41.996;23.098;2023-04-01T01:53:46;7.32;;;7.03;;
37115;SDS011;23025;41.996;23.098;2023-04-01T01:56:12;6.03;;;5.57;;
37115;SDS011;23025;41.996;23.098;2023-04-01T01:58:41;7.05;;;6.75;;
37115;SDS011;23025;41.996;23.098;2023-04-01T02:01:10;6.78;;;6.47;;
37115;SDS011;23025;41.996;23.098;2023-04-01T02:03:38;7.25;;;6.95;;
37115;SDS011;23025;41.996;23.098;2023-04-01T02:06:06;7.63;;;7.32;;
37115;SDS011;23025;41.996;23.098;2023-04-01T02:08:34;8.80;;;8.40;;
37115;SDS011;23025;41.996;23.098;2023-04-01T02:11:03;7.32;;;7.03;;
37115;SDS011;23025;41.996;23.098;2023-04-01T02:13:33;8.27;;;7.75;;
37115;SDS011;23025;41.996;23.098;2023-04-01T02:16:10;10.85;;;10.18;;
37115;SDS011;23025;41.996;23.098;2023-04-01T02:18:38;6.38;;;6.03;;
37115;SDS011;23025;41.996;23.098;2023-04-01T02:21:05;11.00;;;10.50;;
37115;SDS011;23025;41.996;23.098;2023-04-01T02:23:32;7.15;;;6.85;;
37115;SDS011;23025;41.996;23.098;2023-04-01T02:26:00;5.40;;;5.10;;
37115;SDS011;23025;41.996;23.098;2023-04-01T02:28:28;6.32;;;6.03;;
37115;SDS011;23025;41.996;23.098;2023-04-01T02:30:55;6.18;;;5.78;;
37115;SDS011;23025;41.996;23.098;2023-04-01T02:33:23;7.90;;;7.60;;
37115;SDS011;23025;41.996;23.098;2023-04-01T02:35:50;6.22;;;5.82;;
37115;SDS011;23025;41.996;23.098;2023-04-01T02:38:16;5.15;;;4.95;;
37115;SDS011;23025;41.996;23.098;2023-04-01T02:40:44;6.43;;;6.07;;
37115;SDS011;23025;41.996;23.098;2023-04-01T02:43:11;6.75;;;6.45;;
37115;SDS011;23025;41.996;23.098;2023-04-01T02:45:39;6.70;;;6.38;;
37115;SDS011;23025;41.996;23.098;2023-04-01T02:48:05;4.45;;;4.25;;
37115;SDS011;23025;41.996;23.098;2023-04-01T02:50:32;6.18;;;5.95;;
37115;SDS011;23025;41.996;23.098;2023-04-01T02:52:58;5.47;;;5.00;;
37115;SDS011;23025;41.996;23.098;2023-04-01T02:55:25;4.97;;;4.60;;
37115;SDS011;23025;41.996;23.098;2023-04-01T02:57:51;4.88;;;4.65;;
37115;SDS011;23025;41.996;23.098;2023-04-01T03:00:18;5.78;;;5.32;;
37115;SDS011;23025;41.996;23.098;2023-04-01T03:02:46;6.80;;;6.30;;
37115;SDS011;23025;41.996;23.098;2023-04-01T03:05:12;6.10;;;5.90;;
37115;SDS011;23025;41.996;23.098;2023-04-01T03:07:39;4.82;;;4.28;;
37115;SDS011;23025;41.996;23.098;2023-04-01T03:10:06;5.25;;;5.00;;
37115;SDS011;23025;41.996;23.098;2023-04-01T03:12:33;6.78;;;6.47;;
37115;SDS011;23025;41.996;23.098;2023-04-01T03:14:59;9.07;;;8.70;;
37115;SDS011;23025;41.996;23.098;2023-04-01T03:17:26;6.18;;;5.88;;
37115;SDS011;23025;41.996;23.098;2023-04-01T03:19:54;7.65;;;7.25;;
37115;SDS011;23025;41.996;23.098;2023-04-01T03:22:20;7.65;;;7.32;;
37115;SDS011;23025;41.996;23.098;2023-04-01T03:24:47;8.95;;;8.55;;
37115;SDS011;23025;41.996;23.098;2023-04-01T03:27:13;7.93;;;7.53;;
37115;SDS011;23025;41.996;23.098;2023-04-01T03:29:40;4.53;;;4.32;;
37115;SDS011;23025;41.996;23.098;2023-04-01T03:32:07;7.82;;;7.53;;
37115;SDS011;23025;41.996;23.098;2023-04-01T03:34:33;7.50;;;7.20;;
37115;SDS011;23025;41.996;23.098;2023-04-01T03:37:01;7.40;;;7.10;;
37115;SDS011;23025;41.996;23.098;2023-04-01T03:39:28;8.70;;;8.20;;
37115;SDS011;23025;41.996;23.098;2023-04-01T03:41:54;6.72;;;6.45;;
37115;SDS011;23025;41.996;23.098;2023-04-01T03:44:21;7.35;;;6.95;;
37115;SDS011;23025;41.996;23.098;2023-04-01T03:46:47;7.85;;;7.45;;
37115;SDS011;23025;41.996;23.098;2023-04-01T03:49:14;7.93;;;7.63;;
37115;SDS011;23025;41.996;23.098;2023-04-01T03:51:41;7.00;;;6.60;;
37115;SDS011;23025;41.996;23.098;2023-04-01T03:54:09;5.90;;;5.60;;
37115;SDS011;23025;41.996;23.098;2023-04-01T03:56:36;7.35;;;6.90;;
37115;SDS011;23025;41.996;23.098;2023-04-01T03:59:03;10.63;;;10.18;;
37115;SDS011;23025;41.996;23.098;2023-04-01T04:01:30;9.65;;;9.25;;
37115;SDS011;23025;41.996;23.098;2023-04-01T04:03:57;7.72;;;7.43;;
37115;SDS011;23025;41.996;23.098;2023-04-01T04:06:24;8.30;;;7.90;;
37115;SDS011;23025;41.996;23.098;2023-04-01T04:08:51;6.63;;;6.32;;
37115;SDS011;23025;41.996;23.098;2023-04-01T04:11:19;5.05;;;4.85;;
37115;SDS011;23025;41.996;23.098;2023-04-01T04:13:46;6.88;;;5.90;;
37115;SDS011;23025;41.996;23.098;2023-04-01T04:16:14;8.77;;;8.38;;
37115;SDS011;23025;41.996;23.098;2023-04-01T04:18:41;7.93;;;7.63;;
37115;SDS011;23025;41.996;23.098;2023-04-01T04:21:10;8.10;;;7.80;;
37115;SDS011;23025;41.996;23.098;2023-04-01T04:23:37;9.95;;;9.45;;
37115;SDS011;23025;41.996;23.098;2023-04-01T04:26:04;8.45;;;8.05;;
37115;SDS011;23025;41.996;23.098;2023-04-01T04:28:32;7.75;;;7.35;;
37115;SDS011;23025;41.996;23.098;2023-04-01T04:30:59;9.55;;;9.15;;
37115;SDS011;23025;41.996;23.098;2023-04-01T04:33:26;7.72;;;7.43;;
37115;SDS011;23025;41.996;23.098;2023-04-01T04:35:54;7.32;;;6.93;;
37115;SDS011;23025;41.996;23.098;2023-04-01T04:38:21;7.05;;;6.65;;
37115;SDS011;23025;41.996;23.098;2023-04-01T04:40:47;6.03;;;5.75;;
37115;SDS011;23025;41.996;23.098;2023-04-01T04:43:15;7.22;;;6.93;;
37115;SDS011;23025;41.996;23.098;2023-04-01T04:45:44;5.93;;;5.70;;
37115;SDS011;23025;41.996;23.098;2023-04-01T04:48:11;16.58;;;15.98;;
37115;SDS011;23025;41.996;23.098;2023-04-01T04:50:41;6.40;;;6.10;;
37115;SDS011;23025;41.996;23.098;2023-04-01T04:53:08;6.35;;;6.13;;
37115;SDS011;23025;41.996;23.098;2023-04-01T04:55:35;6.32;;;5.95;;
37115;SDS011;23025;41.996;23.098;2023-04-01T04:58:01;5.30;;;5.03;;
37115;SDS011;23025;41.996;23.098;2023-04-01T05:00:28;5.80;;;5.60;;
37115;SDS011;23025;41.996;23.098;2023-04-01T05:02:56;8.73;;;8.40;;
37115;SDS011;23025;41.996;23.098;2023-04-01T05:05:22;6.13;;;5.82;;
37115;SDS011;23025;41.996;23.098;2023-04-01T05:07:49;7.53;;;7.22;;
37115;SDS011;23025;41.996;23.098;2023-04-01T05:10:15;13.02;;;12.10;;
37115;SDS011;23025;41.996;23.098;2023-04-01T05:12:42;16.15;;;11.38;;
37115;SDS011;23025;41.996;23.098;2023-04-01T05:15:09;9.93;;;9.18;;
37115;SDS011;23025;41.996;23.098;2023-04-01T05:17:35;8.68;;;8.25;;
37115;SDS011;23025;41.996;23.098;2023-04-01T05:20:03;7.35;;;6.82;;
37115;SDS011;23025;41.996;23.098;2023-04-01T05:22:30;7.70;;;7.28;;
37115;SDS011;23025;41.996;23.098;2023-04-01T05:24:56;8.52;;;8.13;;
37115;SDS011;23025;41.996;23.098;2023-04-01T05:27:23;8.18;;;7.78;;
37115;SDS011;23025;41.996;23.098;2023-04-01T05:29:49;10.43;;;9.77;;
37115;SDS011;23025;41.996;23.098;2023-04-01T05:32:16;8.20;;;7.60;;
37115;SDS011;23025;41.996;23.098;2023-04-01T05:34:43;8.13;;;7.72;;
37115;SDS011;23025;41.996;23.098;2023-04-01T05:37:10;7.57;;;7.03;;
37115;SDS011;23025;41.996;23.098;2023-04-01T05:39:37;21.73;;;20.83;;
37115;SDS011;23025;41.996;23.098;2023-04-01T05:42:05;20.10;;;19.30;;
37115;SDS011;23025;41.996;23.098;2023-04-01T05:44:31;6.88;;;6.57;;
37115;SDS011;23025;41.996;23.098;2023-04-01T05:46:58;8.93;;;8.43;;
37115;SDS011;23025;41.996;23.098;2023-04-01T05:49:24;8.00;;;7.43;;
37115;SDS011;23025;41.996;23.098;2023-04-01T05:51:51;12.65;;;12.15;;
37115;SDS011;23025;41.996;23.098;2023-04-01T05:54:19;9.40;;;9.00;;
37115;SDS011;23025;41.996;23.098;2023-04-01T05:56:46;10.40;;;9.90;;
37115;SDS011;23025;41.996;23.098;2023-04-01T05:59:12;9.82;;;9.40;;
37115;SDS011;23025;41.996;23.098;2023-04-01T06:01:39;12.27;;;11.77;;
37115;SDS011;23025;41.996;23.098;2023-04-01T06:04:06;22.30;;;21.40;;
37115;SDS011;23025;41.996;23.098;2023-04-01T06:06:32;18.70;;;17.95;;
37115;SDS011;23025;41.996;23.098;2023-04-01T06:09:04;28.02;;;26.90;;
37115;SDS011;23025;41.996;23.098;2023-04-01T06:11:36;21.77;;;20.92;;
37115;SDS011;23025;41.996;23.098;2023-04-01T06:14:11;7.85;;;7.43;;
37115;SDS011;23025;41.996;23.098;2023-04-01T06:16:42;14.32;;;13.73;;
37115;SDS011;23025;41.996;23.098;2023-04-01T06:19:16;27.92;;;26.80;;
37115;SDS011;23025;41.996;23.098;2023-04-01T06:21:51;11.48;;;10.98;;
37115;SDS011;23025;41.996;23.098;2023-04-01T06:24:25;23.75;;;22.85;;
37115;SDS011;23025;41.996;23.098;2023-04-01T06:26:57;27.85;;;26.83;;
37115;SDS011;23025;41.996;23.098;2023-04-01T06:29:41;11.15;;;10.65;;
37115;SDS011;23025;41.996;23.098;2023-04-01T06:32:22;23.35;;;22.38;;
37115;SDS011;23025;41.996;23.098;2023-04-01T06:34:56;20.17;;;19.35;;
37115;SDS011;23025;41.996;23.098;2023-04-01T06:37:28;23.40;;;22.52;;
37115;SDS011;23025;41.996;23.098;2023-04-01T06:43:02;11.27;;;10.77;;
37115;SDS011;23025;41.996;23.098;2023-04-01T06:45:33;28.05;;;26.95;;
37115;SDS011;23025;41.996;23.098;2023-04-01T06:48:10;23.63;;;22.75;;
37115;SDS011;23025;41.996;23.098;2023-04-01T06:50:39;17.88;;;17.17;;
37115;SDS011;23025;41.996;23.098;2023-04-01T06:53:10;14.43;;;13.93;;
37115;SDS011;23025;41.996;23.098;2023-04-01T06:58:10;24.13;;;23.13;;
37115;SDS011;23025;41.996;23.098;2023-04-01T07:00:38;13.63;;;12.65;;
37115;SDS011;23025;41.996;23.098;2023-04-01T07:03:07;11.30;;;10.80;;
37115;SDS011;23025;41.996;23.098;2023-04-01T07:05:38;24.90;;;24.00;;
37115;SDS011;23025;41.996;23.098;2023-04-01T07:08:06;12.85;;;12.35;;
37115;SDS011;23025;41.996;23.098;2023-04-01T07:10:35;24.77;;;23.58;;
37115;SDS011;23025;41.996;23.098;2023-04-01T07:13:04;24.67;;;23.73;;
37115;SDS011;23025;41.996;23.098;2023-04-01T07:15:36;26.15;;;25.10;;
37115;SDS011;23025;41.996;23.098;2023-04-01T07:18:05;27.52;;;26.48;;
37115;SDS011;23025;41.996;23.098;2023-04-01T07:20:33;32.28;;;31.13;;
37115;SDS011;23025;41.996;23.098;2023-04-01T07:23:02;25.95;;;24.92;;
37115;SDS011;23025;41.996;23.098;2023-04-01T07:25:30;28.10;;;27.00;;
37115;SDS011;23025;41.996;23.098;2023-04-01T07:27:59;23.15;;;22.25;;
37115;SDS011;23025;41.996;23.098;2023-04-01T07:30:26;29.75;;;28.65;;
37115;SDS011;23025;41.996;23.098;2023-04-01T07:32:57;9.27;;;8.82;;
37115;SDS011;23025;41.996;23.098;2023-04-01T07:35:27;21.77;;;20.98;;
37115;SDS011;23025;41.996;23.098;2023-04-01T07:38:04;12.23;;;11.73;;
37115;SDS011;23025;41.996;23.098;2023-04-01T07:40:36;21.27;;;20.45;;
37115;SDS011;23025;41.996;23.098;2023-04-01T07:43:10;27.77;;;26.67;;
37115;SDS011;23025;41.996;23.098;2023-04-01T07:45:38;24.02;;;22.98;;
37115;SDS011;23025;41.996;23.098;2023-04-01T07:48:11;26.30;;;25.33;;
37115;SDS011;23025;41.996;23.098;2023-04-01T07:50:41;29.27;;;28.15;;
37115;SDS011;23025;41.996;23.098;2023-04-01T07:53:13;28.05;;;26.90;;
37115;SDS011;23025;41.996;23.098;2023-04-01T07:55:42;22.38;;;21.48;;
37115;SDS011;23025;41.996;23.098;2023-04-01T07:58:12;28.88;;;27.63;;
37115;SDS011;23025;41.996;23.098;2023-04-01T08:00:42;15.38;;;14.70;;
37115;SDS011;23025;41.996;23.098;2023-04-01T08:03:17;25.70;;;24.55;;
37115;SDS011;23025;41.996;23.098;2023-04-01T08:05:47;27.38;;;26.38;;
37115;SDS011;23025;41.996;23.098;2023-04-01T08:08:17;25.10;;;24.13;;
37115;SDS011;23025;41.996;23.098;2023-04-01T08:10:46;30.30;;;29.23;;
37115;SDS011;23025;41.996;23.098;2023-04-01T08:13:14;26.60;;;25.63;;
37115;SDS011;23025;41.996;23.098;2023-04-01T08:18:13;22.13;;;21.25;;
37115;SDS011;23025;41.996;23.098;2023-04-01T08:20:45;10.68;;;10.27;;
37115;SDS011;23025;41.996;23.098;2023-04-01T08:23:14;23.52;;;22.70;;
37115;SDS011;23025;41.996;23.098;2023-04-01T08:25:44;13.68;;;13.10;;
37115;SDS011;23025;41.996;23.098;2023-04-01T08:28:15;27.58;;;26.52;;
37115;SDS011;23025;41.996;23.098;2023-04-01T08:30:44;12.73;;;12.23;;
37115;SDS011;23025;41.996;23.098;2023-04-01T08:33:13;21.95;;;21.15;;
37115;SDS011;23025;41.996;23.098;2023-04-01T08:35:42;29.00;;;27.90;;
37115;SDS011;23025;41.996;23.098;2023-04-01T08:38:15;26.27;;;25.30;;
37115;SDS011;23025;41.996;23.098;2023-04-01T08:40:52;24.67;;;23.67;;
37115;SDS011;23025;41.996;23.098;2023-04-01T08:43:22;15.40;;;14.75;;
37115;SDS011;23025;41.996;23.098;2023-04-01T08:45:56;24.60;;;23.70;;
37115;SDS011;23025;41.996;23.098;2023-04-01T08:48:44;12.70;;;12.20;;
37115;SDS011;23025;41.996;23.098;2023-04-01T08:51:26;23.35;;;22.45;;
37115;SDS011;23025;41.996;23.098;2023-04-01T08:54:01;11.07;;;10.32;;
37115;SDS011;23025;41.996;23.098;2023-04-01T08:56:33;12.52;;;11.98;;
37115;SDS011;23025;41.996;23.098;2023-04-01T08:59:10;22.17;;;21.33;;
37115;SDS011;23025;41.996;23.098;2023-04-01T09:01:52;21.33;;;20.52;;
37115;SDS011;23025;41.996;23.098;2023-04-01T09:04:30;27.80;;;26.73;;
37115;SDS011;23025;41.996;23.098;2023-04-01T09:07:07;22.30;;;21.45;;
37115;SDS011;23025;41.996;23.098;2023-04-01T09:09:46;23.83;;;22.52;;
37115;SDS011;23025;41.996;23.098;2023-04-01T09:12:25;25.83;;;24.70;;
37115;SDS011;23025;41.996;23.098;2023-04-01T09:14:58;27.55;;;26.52;;
37115;SDS011;23025;41.996;23.098;2023-04-01T09:17:43;28.38;;;27.30;;
37115;SDS011;23025;41.996;23.098;2023-04-01T09:20:24;32.72;;;31.35;;
37115;SDS011;23025;41.996;23.098;2023-04-01T09:22:59;29.35;;;28.25;;
37115;SDS011;23025;41.996;23.098;2023-04-01T09:28:16;28.75;;;27.75;;
37115;SDS011;23025;41.996;23.098;2023-04-01T09:36:22;31.65;;;30.52;;
37115;SDS011;23025;41.996;23.098;2023-04-01T09:38:57;36.60;;;34.95;;
37115;SDS011;23025;41.996;23.098;2023-04-01T09:41:27;46.22;;;44.53;;
37115;SDS011;23025;41.996;23.098;2023-04-01T09:44:03;45.20;;;43.40;;
37115;SDS011;23025;41.996;23.098;2023-04-01T09:46:45;44.70;;;43.10;;
37115;SDS011;23025;41.996;23.098;2023-04-01T09:49:19;44.47;;;42.88;;
37115;SDS011;23025;41.996;23.098;2023-04-01T09:51:51;38.63;;;37.03;;
37115;SDS011;23025;41.996;23.098;2023-04-01T09:54:28;43.08;;;41.30;;
37115;SDS011;23025;41.996;23.098;2023-04-01T09:57:04;42.35;;;40.83;;
37115;SDS011;23025;41.996;23.098;2023-04-01T09:59:50;44.75;;;42.88;;
37115;SDS011;23025;41.996;23.098;2023-04-01T10:02:38;42.28;;;40.70;;
37115;SDS011;23025;41.996;23.098;2023-04-01T10:05:19;43.97;;;42.40;;
37115;SDS011;23025;41.996;23.098;2023-04-01T10:10:43;40.60;;;39.17;;
37115;SDS011;23025;41.996;23.098;2023-04-01T10:24:27;32.22;;;30.95;;
37115;SDS011;23025;41.996;23.098;2023-04-01T10:29:51;36.22;;;34.78;;
37115;SDS011;23025;41.996;23.098;2023-04-01T10:38:10;38.40;;;37.00;;
37115;SDS011;23025;41.996;23.098;2023-04-01T10:43:43;36.28;;;34.83;;
37115;SDS011;23025;41.996;23.098;2023-04-01T10:46:20;32.90;;;31.67;;
37115;SDS011;23025;41.996;23.098;2023-04-01T10:54:29;31.13;;;29.90;;
37115;SDS011;23025;41.996;23.098;2023-04-01T10:57:02;18.10;;;16.48;;
37115;SDS011;23025;41.996;23.098;2023-04-01T11:05:30;14.75;;;14.18;;
37115;SDS011;23025;41.996;23.098;2023-04-01T11:08:11;15.50;;;14.43;;
37115;SDS011;23025;41.996;23.098;2023-04-01T11:22:27;27.40;;;26.33;;
37115;SDS011;23025;41.996;23.098;2023-04-01T11:27:50;26.13;;;25.13;;
37115;SDS011;23025;41.996;23.098;2023-04-01T11:30:33;27.70;;;26.63;;
37115;SDS011;23025;41.996;23.098;2023-04-01T11:33:05;10.07;;;9.57;;
37115;SDS011;23025;41.996;23.098;2023-04-01T11:38:31;29.95;;;28.85;;
37115;SDS011;23025;41.996;23.098;2023-04-01T11:43:28;16.88;;;16.08;;
37115;SDS011;23025;41.996;23.098;2023-04-01T11:45:57;20.30;;;19.55;;
37115;SDS011;23025;41.996;23.098;2023-04-01T11:48:29;29.02;;;27.92;;
37115;SDS011;23025;41.996;23.098;2023-04-01T11:51:05;31.02;;;29.88;;
37115;SDS011;23025;41.996;23.098;2023-04-01T11:53:39;27.35;;;26.35;;
37115;SDS011;23025;41.996;23.098;2023-04-01T11:56:14;13.20;;;12.55;;
37115;SDS011;23025;41.996;23.098;2023-04-01T12:01:30;33.72;;;32.47;;
37115;SDS011;23025;41.996;23.098;2023-04-01T12:04:06;14.35;;;13.80;;
37115;SDS011;23025;41.996;23.098;2023-04-01T12:06:44;28.23;;;27.10;;
37115;SDS011;23025;41.996;23.098;2023-04-01T12:09:17;29.58;;;28.38;;
37115;SDS011;23025;41.996;23.098;2023-04-01T12:11:48;12.20;;;11.70;;
37115;SDS011;23025;41.996;23.098;2023-04-01T12:14:18;15.90;;;15.30;;
37115;SDS011;23025;41.996;23.098;2023-04-01T12:16:51;21.00;;;20.05;;
37115;SDS011;23025;41.996;23.098;2023-04-01T12:19:24;12.68;;;11.90;;
37115;SDS011;23025;41.996;23.098;2023-04-01T12:21:58;14.32;;;13.63;;
37115;SDS011;23025;41.996;23.098;2023-04-01T12:27:29;9.45;;;9.05;;
37115;SDS011;23025;41.996;23.098;2023-04-01T12:30:17;9.65;;;9.25;;
37115;SDS011;23025;41.996;23.098;2023-04-01T12:35:18;10.02;;;9.63;;
37115;SDS011;23025;41.996;23.098;2023-04-01T12:37:49;11.02;;;10.43;;
37115;SDS011;23025;41.996;23.098;2023-04-01T12:40:30;11.60;;;11.07;;
37115;SDS011;23025;41.996;23.098;2023-04-01T12:45:54;9.35;;;8.85;;
37115;SDS011;23025;41.996;23.098;2023-04-01T12:48:29;9.95;;;9.55;;
37115;SDS011;23025;41.996;23.098;2023-04-01T12:51:15;10.70;;;10.27;;
37115;SDS011;23025;41.996;23.098;2023-04-01T12:53:50;10.32;;;9.88;;
37115;SDS011;23025;41.996;23.098;2023-04-01T12:56:25;7.00;;;6.68;;
37115;SDS011;23025;41.996;23.098;2023-04-01T12:59:12;18.25;;;17.55;;
37115;SDS011;23025;41.996;23.098;2023-04-01T13:10:04;6.75;;;6.45;;
37115;SDS011;23025;41.996;23.098;2023-04-01T13:12:48;6.80;;;6.40;;
37115;SDS011;23025;41.996;23.098;2023-04-01T13:15:23;9.73;;;9.23;;
37115;SDS011;23025;41.996;23.098;2023-04-01T13:17:52;8.02;;;7.72;;
37115;SDS011;23025;41.996;23.098;2023-04-01T13:20:23;8.27;;;7.88;;
37115;SDS011;23025;41.996;23.098;2023-04-01T13:22:52;14.25;;;13.73;;
37115;SDS011;23025;41.996;23.098;2023-04-01T13:25:25;9.63;;;9.23;;
37115;SDS011;23025;41.996;23.098;2023-04-01T13:27:54;9.13;;;8.75;;
37115;SDS011;23025;41.996;23.098;2023-04-01T13:30:24;7.72;;;7.32;;
37115;SDS011;23025;41.996;23.098;2023-04-01T13:32:55;8.10;;;7.70;;
37115;SDS011;23025;41.996;23.098;2023-04-01T13:35:28;9.60;;;9.20;;
37115;SDS011;23025;41.996;23.098;2023-04-01T13:38:05;12.07;;;11.65;;
37115;SDS011;23025;41.996;23.098;2023-04-01T13:40:38;9.80;;;9.40;;
37115;SDS011;23025;41.996;23.098;2023-04-01T13:43:08;8.93;;;8.52;;
37115;SDS011;23025;41.996;23.098;2023-04-01T13:45:41;8.73;;;8.23;;
37115;SDS011;23025;41.996;23.098;2023-04-01T13:48:14;10.60;;;10.05;;
37115;SDS011;23025;41.996;23.098;2023-04-01T13:50:52;20.77;;;19.98;;
37115;SDS011;23025;41.996;23.098;2023-04-01T13:53:25;9.05;;;8.68;;
37115;SDS011;23025;41.996;23.098;2023-04-01T13:56:04;8.32;;;8.00;;
37115;SDS011;23025;41.996;23.098;2023-04-01T13:58:49;12.63;;;12.02;;
37115;SDS011;23025;41.996;23.098;2023-04-01T14:01:23;11.73;;;11.13;;
37115;SDS011;23025;41.996;23.098;2023-04-01T14:04:03;10.73;;;10.30;;
37115;SDS011;23025;41.996;23.098;2023-04-01T14:06:38;13.25;;;12.65;;
37115;SDS011;23025;41.996;23.098;2023-04-01T14:09:13;10.80;;;10.38;;
37115;SDS011;23025;41.996;23.098;2023-04-01T14:11:45;12.32;;;11.63;;
37115;SDS011;23025;41.996;23.098;2023-04-01T14:14:17;11.55;;;11.10;;
37115;SDS011;23025;41.996;23.098;2023-04-01T14:16:55;10.55;;;10.05;;
37115;SDS011;23025;41.996;23.098;2023-04-01T14:19:30;9.48;;;8.98;;
37115;SDS011;23025;41.996;23.098;2023-04-01T14:21:58;10.38;;;9.88;;
37115;SDS011;23025;41.996;23.098;2023-04-01T14:24:36;9.60;;;9.15;;
37115;SDS011;23025;41.996;23.098;2023-04-01T14:27:20;12.93;;;11.93;;
37115;SDS011;23025;41.996;23.098;2023-04-01T14:29:56;11.35;;;10.73;;
37115;SDS011;23025;41.996;23.098;2023-04-01T14:32:27;9.00;;;8.40;;
37115;SDS011;23025;41.996;23.098;2023-04-01T14:34:59;19.95;;;19.17;;
37115;SDS011;23025;41.996;23.098;2023-04-01T14:37:55;10.98;;;10.30;;
37115;SDS011;23025;41.996;23.098;2023-04-01T14:40:28;11.80;;;11.20;;
37115;SDS011;23025;41.996;23.098;2023-04-01T14:45:55;23.42;;;22.42;;
37115;SDS011;23025;41.996;23.098;2023-04-01T14:48:28;11.43;;;10.82;;
37115;SDS011;23025;41.996;23.098;2023-04-01T14:50:57;10.05;;;9.63;;
37115;SDS011;23025;41.996;23.098;2023-04-01T14:53:29;15.70;;;15.02;;
37115;SDS011;23025;41.996;23.098;2023-04-01T14:55:58;9.35;;;8.93;;
37115;SDS011;23025;41.996;23.098;2023-04-01T14:58:27;11.30;;;10.80;;
37115;SDS011;23025;41.996;23.098;2023-04-01T15:01:10;11.15;;;10.65;;
37115;SDS011;23025;41.996;23.098;2023-04-01T15:03:40;21.27;;;20.45;;
37115;SDS011;23025;41.996;23.098;2023-04-01T15:06:30;9.63;;;9.20;;
37115;SDS011;23025;41.996;23.098;2023-04-01T15:09:01;9.05;;;8.65;;
37115;SDS011;23025;41.996;23.098;2023-04-01T15:11:32;10.38;;;9.52;;
37115;SDS011;23025;41.996;23.098;2023-04-01T15:16:50;12.63;;;11.93;;
37115;SDS011;23025;41.996;23.098;2023-04-01T15:19:20;11.15;;;10.65;;
37115;SDS011;23025;41.996;23.098;2023-04-01T15:21:56;14.77;;;14.15;;
37115;SDS011;23025;41.996;23.098;2023-04-01T15:24:29;23.73;;;22.67;;
37115;SDS011;23025;41.996;23.098;2023-04-01T15:32:40;10.95;;;10.35;;
37115;SDS011;23025;41.996;23.098;2023-04-01T15:35:13;20.70;;;19.88;;
37115;SDS011;23025;41.996;23.098;2023-04-01T15:37:43;23.45;;;22.52;;
37115;SDS011;23025;41.996;23.098;2023-04-01T15:40:16;28.80;;;27.70;;
37115;SDS011;23025;41.996;23.098;2023-04-01T15:42:49;13.35;;;12.80;;
37115;SDS011;23025;41.996;23.098;2023-04-01T15:45:26;24.65;;;23.70;;
37115;SDS011;23025;41.996;23.098;2023-04-01T15:48:04;21.35;;;20.45;;
37115;SDS011;23025;41.996;23.098;2023-04-01T15:50:43;14.57;;;13.98;;
37115;SDS011;23025;41.996;23.098;2023-04-01T15:53:23;9.90;;;9.50;;
37115;SDS011;23025;41.996;23.098;2023-04-01T15:55:53;10.82;;;10.43;;
37115;SDS011;23025;41.996;23.098;2023-04-01T15:58:29;27.33;;;26.33;;
37115;SDS011;23025;41.996;23.098;2023-04-01T16:01:02;11.85;;;11.35;;
37115;SDS011;23025;41.996;23.098;2023-04-01T16:03:34;11.48;;;11.07;;
37115;SDS011;23025;41.996;23.098;2023-04-01T16:09:05;9.18;;;8.77;;
37115;SDS011;23025;41.996;23.098;2023-04-01T16:11:37;9.90;;;9.40;;
37115;SDS011;23025;41.996;23.098;2023-04-01T16:14:11;9.70;;;9.30;;
37115;SDS011;23025;41.996;23.098;2023-04-01T16:16:44;10.63;;;10.23;;
37115;SDS011;23025;41.996;23.098;2023-04-01T16:19:21;10.55;;;10.05;;
37115;SDS011;23025;41.996;23.098;2023-04-01T16:21:50;11.65;;;11.05;;
37115;SDS011;23025;41.996;23.098;2023-04-01T16:24:19;13.73;;;13.23;;
37115;SDS011;23025;41.996;23.098;2023-04-01T16:26:50;30.00;;;28.85;;
37115;SDS011;23025;41.996;23.098;2023-04-01T16:29:20;9.07;;;8.70;;
37115;SDS011;23025;41.996;23.098;2023-04-01T16:31:51;8.25;;;7.72;;